Time;durP1;ratioP1;P1;durP2;ratioP2;P2;SDS_P1;SDS_P2;PMS_P1;PMS_P2;Temp;Humidity;BMP_temperature;BMP_pressure;BME280_temperature;BME280_humidity;BME280_pressure;Samples;Min_cycle;Max_cycle;Signal;HPM_P1;HPM_P2
2022/06/15 00:00:33;;;;;;;11.73;5.22;;;;;;;;;;5074050;28;20085;-67
2022/06/15 00:03:00;;;;;;;10.18;5.47;;;;;;;;;;5074851;28;20032;-72
2022/06/15 00:05:27;;;;;;;14.18;6.07;;;;;;;;;;5074032;28;20032;-74
2022/06/15 00:07:53;;;;;;;10.65;4.97;;;;;;;;;;5083814;28;20479;-69
2022/06/15 00:10:20;;;;;;;10.43;4.75;;;;;;;;;;5080504;28;20027;-69
2022/06/15 00:12:46;;;;;;;11.80;5.88;;;;;;;;;;5081244;28;20052;-67
2022/06/15 00:15:13;;;;;;;10.10;5.80;;;;;;;;;;5082391;28;20036;-73
2022/06/15 00:17:39;;;;;;;9.15;5.55;;;;;;;;;;5082612;28;20154;-71
2022/06/15 00:20:06;;;;;;;11.02;5.68;;;;;;;;;;5083292;28;20024;-70
2022/06/15 00:22:32;;;;;;;13.10;5.80;;;;;;;;;;5083936;28;20063;-68
2022/06/15 00:24:58;;;;;;;10.18;5.03;;;;;;;;;;5083300;28;20361;-71
2022/06/15 00:27:24;;;;;;;8.55;5.07;;;;;;;;;;5082223;28;20035;-71
2022/06/15 00:29:50;;;;;;;7.90;5.18;;;;;;;;;;5074371;28;20028;-68
2022/06/15 00:32:16;;;;;;;8.52;5.05;;;;;;;;;;5071783;28;20032;-66
2022/06/15 00:34:42;;;;;;;7.07;4.43;;;;;;;;;;5074917;28;20404;-66
2022/06/15 00:37:08;;;;;;;8.57;4.35;;;;;;;;;;5075244;28;20093;-67
2022/06/15 00:39:35;;;;;;;9.68;5.13;;;;;;;;;;5073824;28;20460;-70
2022/06/15 00:42:02;;;;;;;6.85;4.50;;;;;;;;;;5075213;28;20060;-70
2022/06/15 00:44:33;;;;;;;11.65;5.43;;;;;;;;;;5075302;28;20028;-71
2022/06/15 00:47:16;;;;;;;9.52;4.60;;;;;;;;;;5073522;28;20574;-68
2022/06/15 00:49:47;;;;;;;;;;;;;;;;;;5088470;28;20035;-65
2022/06/15 00:52:17;;;;;;;8.35;4.68;;;;;;;;;;5089569;28;20103;-67
2022/06/15 00:54:47;;;;;;;10.30;5.07;;;;;;;;;;5091407;28;20468;-69
2022/06/15 00:57:13;;;;;;;7.85;4.60;;;;;;;;;;5090420;28;20499;-68
2022/06/15 00:59:58;;;;;;;8.75;4.80;;;;;;;;;;5092487;28;20027;-65
2022/06/15 01:02:25;;;;;;;7.00;4.80;;;;;;;;;;5091402;28;20113;-70
2022/06/15 01:04:59;;;;;;;8.45;4.80;;;;;;;;;;5089762;28;20028;-70
2022/06/15 01:07:42;;;;;;;8.07;4.65;;;;;;;;;;5090048;28;20127;-68
2022/06/15 01:10:22;;;;;;;10.25;5.32;;;;;;;;;;5091420;28;20036;-72
2022/06/15 01:13:02;;;;;;;7.57;4.68;;;;;;;;;;5091398;28;20078;-71
2022/06/15 01:15:44;;;;;;;5.90;4.10;;;;;;;;;;5089532;28;20051;-67
2022/06/15 01:18:30;;;;;;;6.60;4.60;;;;;;;;;;5091075;28;20051;-68
2022/06/15 01:21:09;;;;;;;8.30;4.80;;;;;;;;;;5087053;28;20390;-67
2022/06/15 01:23:55;;;;;;;7.35;4.80;;;;;;;;;;5091399;28;20044;-65
2022/06/15 01:26:53;;;;;;;8.75;4.20;;;;;;;;;;5091192;28;20035;-66
2022/06/15 01:29:47;;;;;;;7.35;4.85;;;;;;;;;;5086940;28;20044;-64
2022/06/15 01:32:19;;;;;;;8.27;4.70;;;;;;;;;;5091026;28;20028;-65
2022/06/15 01:35:13;;;;;;;10.73;5.78;;;;;;;;;;5075773;28;20028;-65
2022/06/15 01:37:55;;;;;;;8.13;5.03;;;;;;;;;;5087436;28;20047;-64
2022/06/15 01:40:42;;;;;;;7.30;4.88;;;;;;;;;;5088300;28;20031;-70
2022/06/15 01:43:16;;;;;;;9.57;5.50;;;;;;;;;;5079857;28;20036;-70
2022/06/15 01:45:44;;;;;;;8.07;4.75;;;;;;;;;;5083321;28;20064;-75
2022/06/15 01:48:12;;;;;;;8.63;6.07;;;;;;;;;;5071051;28;20494;-69
2022/06/15 01:51:04;;;;;;;8.85;5.13;;;;;;;;;;5079327;28;20036;-68
2022/06/15 01:53:39;;;;;;;7.80;4.90;;;;;;;;;;5088526;28;20039;-71
2022/06/15 01:56:18;;;;;;;10.85;5.38;;;;;;;;;;5089300;28;20393;-70
2022/06/15 01:58:51;;;;;;;7.15;4.80;;;;;;;;;;5088128;28;20127;-68
2022/06/15 02:01:32;;;;;;;7.50;5.40;;;;;;;;;;5088283;28;20482;-68
2022/06/15 02:04:15;;;;;;;8.75;4.95;;;;;;;;;;5087588;28;20067;-68
2022/06/15 02:06:55;;;;;;;15.10;6.30;;;;;;;;;;5087682;28;20065;-66
2022/06/15 02:09:37;;;;;;;6.75;5.15;;;;;;;;;;5088844;28;20028;-67
2022/06/15 02:12:06;;;;;;;9.27;5.80;;;;;;;;;;5087727;28;20036;-74
2022/06/15 02:14:53;;;;;;;9.00;6.25;;;;;;;;;;5088263;28;20128;-64
2022/06/15 02:17:22;;;;;;;12.45;6.55;;;;;;;;;;5088704;28;20039;-65
2022/06/15 02:19:52;;;;;;;11.40;5.88;;;;;;;;;;5087628;28;20020;-64
2022/06/15 02:22:27;;;;;;;9.80;5.32;;;;;;;;;;5087686;28;20052;-64
2022/06/15 02:24:56;;;;;;;7.53;4.90;;;;;;;;;;5088160;28;20482;-64
2022/06/15 02:27:26;;;;;;;9.13;5.70;;;;;;;;;;5087718;28;20082;-64
2022/06/15 02:29:59;;;;;;;9.00;5.25;;;;;;;;;;5087677;28;20036;-66
2022/06/15 02:32:27;;;;;;;9.77;5.65;;;;;;;;;;5087893;28;20043;-70
2022/06/15 02:34:52;;;;;;;6.68;5.13;;;;;;;;;;5088390;28;20622;-68
2022/06/15 02:37:18;;;;;;;14.27;5.65;;;;;;;;;;5088074;28;20036;-72
2022/06/15 02:39:44;;;;;;;9.18;5.60;;;;;;;;;;5087468;28;20115;-65
2022/06/15 02:42:45;;;;;;;12.80;5.75;;;;;;;;;;5087385;28;20508;-65
2022/06/15 02:45:26;;;;;;;9.02;5.72;;;;;;;;;;5080998;28;20051;-72
2022/06/15 02:47:55;;;;;;;8.10;5.28;;;;;;;;;;5086814;28;20036;-66
2022/06/15 02:50:26;;;;;;;8.88;6.05;;;;;;;;;;5087286;28;20391;-72
2022/06/15 02:53:06;;;;;;;11.90;6.70;;;;;;;;;;5086697;28;20078;-69
2022/06/15 02:55:34;;;;;;;11.52;5.68;;;;;;;;;;5086791;28;20046;-67
2022/06/15 02:58:06;;;;;;;10.93;5.78;;;;;;;;;;5087290;28;20028;-68
2022/06/15 03:00:42;;;;;;;16.35;6.53;;;;;;;;;;5086375;28;20028;-65
2022/06/15 03:03:09;;;;;;;9.77;5.90;;;;;;;;;;5087024;28;20040;-68
2022/06/15 03:05:35;;;;;;;8.23;5.70;;;;;;;;;;5087377;28;20115;-65
2022/06/15 03:08:01;;;;;;;10.43;5.25;;;;;;;;;;5088290;28;20055;-65
2022/06/15 03:10:28;;;;;;;8.77;5.65;;;;;;;;;;5086158;28;20012;-65
2022/06/15 03:12:55;;;;;;;13.05;6.63;;;;;;;;;;5086567;28;20032;-64
2022/06/15 03:15:22;;;;;;;9.52;5.57;;;;;;;;;;5087092;28;20036;-65
2022/06/15 03:17:50;;;;;;;8.57;5.20;;;;;;;;;;5088671;28;20039;-66
2022/06/15 03:20:16;;;;;;;21.73;6.82;;;;;;;;;;5053948;28;20056;-65
2022/06/15 03:22:45;;;;;;;16.52;7.45;;;;;;;;;;5068180;28;20025;-70
2022/06/15 03:25:18;;;;;;;15.05;7.10;;;;;;;;;;5068260;28;20089;-67
2022/06/15 03:27:45;;;;;;;14.52;6.78;;;;;;;;;;5086787;28;20040;-69
2022/06/15 03:30:13;;;;;;;10.43;6.45;;;;;;;;;;5086745;28;20043;-68
2022/06/15 03:32:48;;;;;;;12.35;6.90;;;;;;;;;;5087178;28;20043;-68
2022/06/15 03:35:17;;;;;;;16.90;8.13;;;;;;;;;;5069085;28;20444;-72
2022/06/15 03:37:43;;;;;;;21.38;7.13;;;;;;;;;;5067530;28;20037;-77
2022/06/15 03:40:25;;;;;;;16.67;7.75;;;;;;;;;;5067857;28;20035;-73
2022/06/15 03:42:53;;;;;;;11.52;6.25;;;;;;;;;;5066639;28;20055;-66
2022/06/15 03:45:20;;;;;;;15.10;6.30;;;;;;;;;;5066963;28;20039;-70
2022/06/15 03:47:46;;;;;;;11.30;6.55;;;;;;;;;;5066824;28;20391;-73
2022/06/15 03:50:13;;;;;;;15.10;6.72;;;;;;;;;;5087279;28;20115;-70
2022/06/15 03:52:39;;;;;;;18.60;7.18;;;;;;;;;;5086983;28;20047;-68
2022/06/15 03:55:05;;;;;;;16.83;6.93;;;;;;;;;;5088607;28;20035;-68
2022/06/15 03:57:33;;;;;;;13.23;6.80;;;;;;;;;;5085184;28;20429;-73
2022/06/15 04:00:02;;;;;;;20.42;7.95;;;;;;;;;;5086786;28;20028;-68
2022/06/15 04:02:47;;;;;;;18.25;7.40;;;;;;;;;;5088890;28;20063;-67
2022/06/15 04:05:25;;;;;;;12.32;6.75;;;;;;;;;;5087329;28;20360;-66
2022/06/15 04:10:36;;;;;;;11.55;6.20;;;;;;;;;;5087072;28;20028;-69
2022/06/15 04:13:05;;;;;;;11.88;6.28;;;;;;;;;;5090327;28;20038;-72
2022/06/15 04:15:32;;;;;;;15.25;6.40;;;;;;;;;;5094927;28;20060;-67
2022/06/15 04:17:58;;;;;;;9.85;6.38;;;;;;;;;;5090746;28;20044;-68
2022/06/15 04:20:33;;;;;;;10.95;5.72;;;;;;;;;;5091111;28;20422;-67
2022/06/15 04:23:21;;;;;;;14.77;5.70;;;;;;;;;;5091600;28;20036;-69
2022/06/15 04:26:00;;;;;;;8.35;4.95;;;;;;;;;;5089593;28;20047;-71
2022/06/15 04:28:33;;;;;;;10.70;4.97;;;;;;;;;;5084892;28;20036;-71
2022/06/15 04:31:06;;;;;;;7.68;4.80;;;;;;;;;;5089987;28;20038;-72
2022/06/15 04:33:37;;;;;;;15.95;4.97;;;;;;;;;;5088602;28;20044;-72
2022/06/15 04:36:04;;;;;;;30.48;6.80;;;;;;;;;;5088499;28;20035;-73
2022/06/15 04:38:31;;;;;;;11.80;5.60;;;;;;;;;;5089138;28;20024;-75
2022/06/15 04:41:03;;;;;;;9.85;4.55;;;;;;;;;;5079792;28;20037;-69
2022/06/15 04:43:30;;;;;;;8.55;5.00;;;;;;;;;;5073803;28;20040;-70
2022/06/15 04:45:56;;;;;;;11.02;4.93;;;;;;;;;;5074141;28;20028;-70
2022/06/15 04:48:24;;;;;;;15.98;4.65;;;;;;;;;;5072887;28;20052;-69
2022/06/15 04:50:51;;;;;;;6.50;4.20;;;;;;;;;;5072771;28;20033;-70
2022/06/15 04:53:17;;;;;;;12.13;4.95;;;;;;;;;;5073862;28;20040;-77
2022/06/15 04:55:48;;;;;;;20.88;5.28;;;;;;;;;;5072498;28;20035;-69
2022/06/15 04:58:15;;;;;;;18.00;4.82;;;;;;;;;;5072380;28;20395;-70
2022/06/15 05:00:42;;;;;;;8.95;4.35;;;;;;;;;;5072694;28;20121;-70
2022/06/15 05:03:11;;;;;;;18.35;4.95;;;;;;;;;;5072296;28;20040;-71
2022/06/15 05:05:37;;;;;;;10.10;3.60;;;;;;;;;;5072902;28;20028;-69
2022/06/15 05:08:07;;;;;;;6.75;4.05;;;;;;;;;;5072486;28;20097;-71
2022/06/15 05:10:33;;;;;;;11.88;5.30;;;;;;;;;;5071315;28;20029;-77
2022/06/15 05:12:59;;;;;;;12.23;5.55;;;;;;;;;;5071927;28;20086;-76
2022/06/15 05:15:28;;;;;;;11.30;5.47;;;;;;;;;;5072145;28;20041;-72
2022/06/15 05:18:03;;;;;;;10.17;5.70;;;;;;;;;;5071109;28;20056;-77
2022/06/15 05:20:29;;;;;;;9.75;4.63;;;;;;;;;;5070562;28;20155;-74
2022/06/15 05:22:56;;;;;;;16.88;4.88;;;;;;;;;;5070973;28;20068;-74
2022/06/15 05:25:40;;;;;;;12.13;4.65;;;;;;;;;;5071832;28;20032;-76
2022/06/15 05:28:08;;;;;;;8.65;5.53;;;;;;;;;;5072347;28;20036;-75
2022/06/15 05:30:38;;;;;;;17.17;6.18;;;;;;;;;;5072187;28;20024;-73
2022/06/15 05:33:08;;;;;;;14.98;6.32;;;;;;;;;;5072036;28;20139;-77
2022/06/15 05:35:35;;;;;;;10.43;5.95;;;;;;;;;;5071682;28;20040;-72
2022/06/15 05:38:01;;;;;;;13.73;6.43;;;;;;;;;;5091904;28;20115;-74
2022/06/15 05:40:28;;;;;;;13.80;5.38;;;;;;;;;;5092385;28;20096;-73
2022/06/15 05:42:54;;;;;;;9.38;4.07;;;;;;;;;;5091924;28;20036;-78
2022/06/15 05:45:20;;;;;;;9.52;4.07;;;;;;;;;;5092019;28;20040;-74
2022/06/15 05:47:46;;;;;;;8.80;3.75;;;;;;;;;;5093400;28;20029;-77
2022/06/15 05:50:19;;;;;;;5.38;3.35;;;;;;;;;;5092075;28;20039;-76
2022/06/15 05:52:56;;;;;;;11.50;4.05;;;;;;;;;;5091975;28;20115;-74
2022/06/15 05:55:22;;;;;;;9.43;3.88;;;;;;;;;;5093226;28;20028;-77
2022/06/15 05:57:47;;;;;;;8.55;3.70;;;;;;;;;;5093395;28;20039;-70
2022/06/15 06:00:14;;;;;;;9.43;3.80;;;;;;;;;;5093064;28;20107;-73
2022/06/15 06:02:41;;;;;;;7.70;3.90;;;;;;;;;;5092798;28;20030;-73
2022/06/15 06:05:07;;;;;;;6.45;3.83;;;;;;;;;;5091901;28;20111;-72
2022/06/15 06:07:33;;;;;;;9.38;4.50;;;;;;;;;;5095501;28;20016;-72
2022/06/15 06:09:59;;;;;;;6.75;4.30;;;;;;;;;;5094688;28;20039;-75
2022/06/15 06:12:25;;;;;;;9.68;4.50;;;;;;;;;;5092676;28;20022;-77
2022/06/15 06:14:53;;;;;;;10.35;4.47;;;;;;;;;;5090242;28;20535;-72
2022/06/15 06:17:20;;;;;;;8.27;4.25;;;;;;;;;;5081350;28;20103;-73
2022/06/15 06:19:46;;;;;;;8.82;4.22;;;;;;;;;;5072472;28;20031;-73
2022/06/15 06:22:11;;;;;;;9.25;5.15;;;;;;;;;;5071896;28;20052;-72
2022/06/15 06:24:37;;;;;;;8.40;4.55;;;;;;;;;;5072182;28;20036;-72
2022/06/15 06:27:05;;;;;;;8.27;4.55;;;;;;;;;;5071981;28;20117;-70
2022/06/15 06:29:32;;;;;;;11.88;5.63;;;;;;;;;;5072242;28;20112;-72
2022/06/15 06:31:59;;;;;;;10.70;5.25;;;;;;;;;;5072170;28;20158;-72
2022/06/15 06:34:26;;;;;;;8.13;4.82;;;;;;;;;;5070804;28;20082;-73
2022/06/15 06:36:52;;;;;;;7.97;4.85;;;;;;;;;;5072127;28;20039;-71
2022/06/15 06:39:24;;;;;;;10.00;5.07;;;;;;;;;;5072049;28;20039;-75
2022/06/15 06:41:50;;;;;;;10.30;5.15;;;;;;;;;;5072173;28;20087;-76
2022/06/15 06:44:16;;;;;;;7.70;4.80;;;;;;;;;;5072182;28;20428;-72
2022/06/15 06:46:45;;;;;;;7.32;5.32;;;;;;;;;;5070941;28;20042;-72
2022/06/15 06:49:12;;;;;;;7.20;5.38;;;;;;;;;;5071879;28;20127;-70
2022/06/15 06:51:39;;;;;;;10.82;5.45;;;;;;;;;;5072155;28;20068;-75
2022/06/15 06:54:06;;;;;;;8.05;5.55;;;;;;;;;;5071440;28;20033;-72
2022/06/15 06:56:36;;;;;;;6.40;4.80;;;;;;;;;;5071748;28;20036;-76
2022/06/15 06:59:07;;;;;;;7.47;4.03;;;;;;;;;;5071683;28;20424;-77
2022/06/15 07:01:34;;;;;;;9.63;5.07;;;;;;;;;;5071711;28;20479;-76
2022/06/15 07:04:00;;;;;;;8.18;3.72;;;;;;;;;;5071350;28;20083;-75
2022/06/15 07:06:25;;;;;;;10.00;4.10;;;;;;;;;;5071910;28;20025;-76
2022/06/15 07:08:51;;;;;;;7.78;4.03;;;;;;;;;;5072509;28;20485;-75
2022/06/15 07:11:17;;;;;;;9.27;3.83;;;;;;;;;;5071272;28;20546;-77
2022/06/15 07:13:44;;;;;;;7.75;3.42;;;;;;;;;;5072035;28;20189;-77
2022/06/15 07:16:13;;;;;;;5.35;3.20;;;;;;;;;;5071649;28;20120;-76
2022/06/15 07:18:39;;;;;;;8.98;3.50;;;;;;;;;;5071779;28;20332;-77
2022/06/15 07:21:08;;;;;;;5.57;3.60;;;;;;;;;;5071357;28;20051;-74
2022/06/15 07:23:34;;;;;;;14.15;4.30;;;;;;;;;;5071538;28;20039;-77
2022/06/15 07:26:04;;;;;;;5.55;3.70;;;;;;;;;;5077933;28;20028;-76
2022/06/15 07:28:31;;;;;;;10.02;3.35;;;;;;;;;;5075455;28;20032;-76
2022/06/15 07:30:56;;;;;;;7.03;3.38;;;;;;;;;;5071155;28;20038;-76
2022/06/15 07:33:22;;;;;;;7.90;3.20;;;;;;;;;;5071173;28;20557;-77
2022/06/15 07:35:48;;;;;;;8.18;2.83;;;;;;;;;;5071184;28;20028;-78
2022/06/15 07:38:14;;;;;;;3.65;2.63;;;;;;;;;;5071680;28;20425;-75
2022/06/15 07:40:40;;;;;;;5.32;2.75;;;;;;;;;;5071541;28;20029;-75
2022/06/15 07:43:05;;;;;;;4.00;3.28;;;;;;;;;;5071446;28;20052;-75
2022/06/15 07:45:31;;;;;;;6.07;3.05;;;;;;;;;;5071149;28;20355;-73
2022/06/15 07:50:42;;;;;;;7.10;3.15;;;;;;;;;;5075012;28;20475;-74
2022/06/15 07:53:11;;;;;;;13.82;3.70;;;;;;;;;;5074725;28;20031;-73
2022/06/15 07:55:41;;;;;;;4.80;3.17;;;;;;;;;;5074603;28;20047;-72
2022/06/15 07:58:08;;;;;;;7.72;3.10;;;;;;;;;;5074802;28;20029;-71
2022/06/15 08:00:35;;;;;;;5.38;3.42;;;;;;;;;;5073505;28;20029;-75
2022/06/15 08:03:01;;;;;;;5.22;2.33;;;;;;;;;;5074593;28;20427;-71
2022/06/15 08:05:31;;;;;;;4.15;2.42;;;;;;;;;;5074466;28;20082;-72
2022/06/15 08:07:57;;;;;;;4.70;2.95;;;;;;;;;;5072762;28;20031;-71
2022/06/15 08:10:25;;;;;;;7.35;3.10;;;;;;;;;;5074387;28;20484;-71
2022/06/15 08:12:52;;;;;;;6.82;3.13;;;;;;;;;;5074250;28;20017;-70
2022/06/15 08:15:18;;;;;;;6.03;3.20;;;;;;;;;;5073917;28;20452;-70
2022/06/15 08:17:52;;;;;;;7.30;2.92;;;;;;;;;;5074299;28;20035;-71
2022/06/15 08:20:29;;;;;;;5.07;3.20;;;;;;;;;;5074443;28;20028;-71
2022/06/15 08:23:01;;;;;;;4.05;2.60;;;;;;;;;;5074090;28;20036;-71
2022/06/15 08:25:31;;;;;;;3.97;2.90;;;;;;;;;;5074105;28;20035;-70
2022/06/15 08:27:58;;;;;;;7.82;3.20;;;;;;;;;;5074251;28;20033;-71
2022/06/15 08:30:26;;;;;;;7.38;2.72;;;;;;;;;;5073954;28;20024;-70
2022/06/15 08:32:53;;;;;;;5.80;3.17;;;;;;;;;;5073891;28;20072;-70
2022/06/15 08:35:19;;;;;;;8.35;2.70;;;;;;;;;;5074166;28;20485;-71
2022/06/15 08:37:46;;;;;;;5.90;2.60;;;;;;;;;;5074420;28;20041;-72
2022/06/15 08:40:14;;;;;;;6.97;3.10;;;;;;;;;;5074265;28;20032;-70
2022/06/15 08:43:06;;;;;;;7.90;2.97;;;;;;;;;;5073866;28;20033;-74
2022/06/15 08:45:36;;;;;;;3.97;2.67;;;;;;;;;;5074086;28;20468;-76
2022/06/15 08:48:18;;;;;;;4.45;2.65;;;;;;;;;;5073475;28;20032;-74
2022/06/15 08:50:49;;;;;;;3.83;2.58;;;;;;;;;;5073794;28;20035;-79
2022/06/15 08:54:01;;;;;;;7.90;3.40;;;;;;;;;;5073633;28;20134;-75
2022/06/15 08:56:51;;;;;;;4.55;2.65;;;;;;;;;;5051493;28;20037;-78
2022/06/15 08:59:28;;;;;;;7.75;3.45;;;;;;;;;;5050465;28;20548;-72
2022/06/15 09:02:25;;;;;;;6.38;2.78;;;;;;;;;;5066540;28;20051;-79
2022/06/15 09:05:04;;;;;;;6.63;3.78;;;;;;;;;;5073668;28;20029;-71
2022/06/15 09:08:09;;;;;;;5.10;3.00;;;;;;;;;;5072731;28;20463;-70
2022/06/15 09:10:55;;;;;;;4.20;2.72;;;;;;;;;;5062225;28;20059;-72
2022/06/15 09:13:52;;;;;;;8.48;3.58;;;;;;;;;;5073005;28;20040;-69
2022/06/15 09:16:36;;;;;;;6.95;2.80;;;;;;;;;;5073253;28;20036;-70
2022/06/15 09:19:09;;;;;;;5.35;2.95;;;;;;;;;;5073465;28;20475;-76
2022/06/15 09:22:04;;;;;;;;;;;;;;;;;;5074037;28;20045;-78
2022/06/15 09:24:47;;;;;;;6.60;2.97;;;;;;;;;;5072730;28;19920;-78
2022/06/15 09:27:40;;;;;;;3.83;2.75;;;;;;;;;;5073256;28;20039;-74
2022/06/15 09:30:15;;;;;;;8.38;2.97;;;;;;;;;;5073492;28;20497;-73
2022/06/15 09:32:46;;;;;;;8.40;3.53;;;;;;;;;;5073080;28;20111;-73
2022/06/15 09:35:18;;;;;;;6.70;3.55;;;;;;;;;;5073315;28;20176;-73
2022/06/15 09:37:52;;;;;;;5.30;2.90;;;;;;;;;;5073454;28;20029;-70
2022/06/15 09:40:19;;;;;;;6.68;2.83;;;;;;;;;;5073428;28;20379;-69
2022/06/15 09:43:02;;;;;;;5.97;2.60;;;;;;;;;;5072709;28;20031;-72
2022/06/15 09:45:35;;;;;;;6.50;2.95;;;;;;;;;;5072834;28;20071;-71
2022/06/15 09:48:06;;;;;;;6.63;3.00;;;;;;;;;;5073080;28;20548;-72
2022/06/15 09:51:19;;;;;;;6.50;2.97;;;;;;;;;;5073069;28;20024;-72
2022/06/15 09:53:50;;;;;;;5.93;2.53;;;;;;;;;;5063263;28;20041;-72
2022/06/15 09:56:19;;;;;;;6.10;2.60;;;;;;;;;;5085485;28;20036;-76
2022/06/15 09:59:02;;;;;;;5.32;2.72;;;;;;;;;;5092967;28;20032;-75
2022/06/15 10:01:34;;;;;;;2.95;2.40;;;;;;;;;;5092743;28;20040;-72
2022/06/15 10:04:03;;;;;;;7.43;2.78;;;;;;;;;;5093045;28;20105;-73
2022/06/15 10:06:51;;;;;;;10.93;2.97;;;;;;;;;;5093021;28;20039;-72
2022/06/15 10:09:23;;;;;;;4.93;2.70;;;;;;;;;;5093054;28;20028;-71
2022/06/15 10:11:52;;;;;;;4.85;2.95;;;;;;;;;;5092484;28;20102;-73
2022/06/15 10:14:31;;;;;;;3.40;2.45;;;;;;;;;;5092530;28;20020;-73
2022/06/15 10:17:02;;;;;;;3.53;2.70;;;;;;;;;;5092490;28;20051;-71
2022/06/15 10:19:31;;;;;;;4.75;3.20;;;;;;;;;;5092594;28;20051;-73
2022/06/15 10:22:02;;;;;;;4.53;2.80;;;;;;;;;;5092476;28;20136;-73
2022/06/15 10:24:32;;;;;;;5.82;2.63;;;;;;;;;;5092294;28;20513;-75
2022/06/15 10:27:16;;;;;;;6.20;3.13;;;;;;;;;;5092287;28;20039;-72
2022/06/15 10:29:44;;;;;;;9.43;3.08;;;;;;;;;;5092472;28;20028;-74
2022/06/15 10:32:10;;;;;;;5.32;2.60;;;;;;;;;;5092701;28;20030;-78
2022/06/15 10:35:02;;;;;;;5.28;2.88;;;;;;;;;;5086498;28;20620;-78
2022/06/15 10:37:39;;;;;;;4.47;2.50;;;;;;;;;;5072127;28;20039;-77
2022/06/15 10:40:29;;;;;;;4.05;2.85;;;;;;;;;;5072265;28;20039;-74
2022/06/15 10:43:14;;;;;;;4.80;2.63;;;;;;;;;;5071981;28;20060;-71
2022/06/15 10:45:51;;;;;;;6.80;4.05;;;;;;;;;;5072632;28;20048;-79
2022/06/15 10:48:30;;;;;;;6.28;2.80;;;;;;;;;;5072255;28;20043;-75
2022/06/15 10:51:24;;;;;;;3.38;2.45;;;;;;;;;;5072185;28;20114;-78
2022/06/15 10:54:11;;;;;;;5.05;3.35;;;;;;;;;;5068205;28;20041;-77
2022/06/15 11:02:37;;;;;;;5.30;2.70;;;;;;;;;;5071894;28;20043;-75
2022/06/15 11:05:09;;;;;;;3.50;2.72;;;;;;;;;;5072060;28;20048;-78
2022/06/15 11:07:58;;;;;;;5.55;3.08;;;;;;;;;;5071932;28;20094;-73
2022/06/15 11:10:35;;;;;;;6.13;3.28;;;;;;;;;;5071865;28;20051;-73
2022/06/15 11:13:04;;;;;;;5.15;2.90;;;;;;;;;;5081239;28;20028;-74
2022/06/15 11:18:32;;;;;;;10.77;2.88;;;;;;;;;;5100226;28;20024;-73
2022/06/15 11:21:05;;;;;;;4.20;2.65;;;;;;;;;;5106785;28;20134;-75
2022/06/15 11:23:58;;;;;;;5.38;3.00;;;;;;;;;;5077697;28;20044;-71
2022/06/15 11:27:03;;;;;;;4.10;3.10;;;;;;;;;;5078894;28;20031;-72
2022/06/15 11:29:41;;;;;;;6.32;3.22;;;;;;;;;;5088968;28;20151;-76
2022/06/15 11:32:25;;;;;;;5.03;2.90;;;;;;;;;;5116023;28;20387;-70
2022/06/15 11:35:13;;;;;;;5.80;2.85;;;;;;;;;;5116249;27;20031;-71
2022/06/15 11:37:58;;;;;;;4.60;2.70;;;;;;;;;;5077309;28;20037;-72
2022/06/15 11:40:33;;;;;;;4.75;2.97;;;;;;;;;;5112053;28;20047;-72
2022/06/15 11:43:01;;;;;;;4.63;3.05;;;;;;;;;;5116444;28;20031;-75
2022/06/15 11:45:58;;;;;;;6.30;3.13;;;;;;;;;;5111543;28;20047;-72
2022/06/15 11:48:43;;;;;;;6.88;2.88;;;;;;;;;;5094125;28;20039;-70
2022/06/15 11:51:35;;;;;;;4.97;3.15;;;;;;;;;;5115635;28;20111;-71
2022/06/15 11:54:25;;;;;;;3.58;2.88;;;;;;;;;;5095845;28;20118;-72
2022/06/15 11:57:20;;;;;;;5.50;2.72;;;;;;;;;;5115796;28;20434;-71
2022/06/15 12:00:13;;;;;;;4.28;2.70;;;;;;;;;;5116281;28;20035;-70
2022/06/15 12:02:39;;;;;;;6.07;4.75;;;;;;;;;;5101114;28;20475;-71
2022/06/15 12:05:26;;;;;;;5.50;2.65;;;;;;;;;;5096154;28;20107;-71
2022/06/15 12:08:10;;;;;;;3.95;2.85;;;;;;;;;;5115800;28;20067;-72
2022/06/15 12:10:51;;;;;;;4.70;3.20;;;;;;;;;;5115844;28;20035;-72
2022/06/15 12:13:37;;;;;;;5.53;2.63;;;;;;;;;;5107385;28;20032;-72
2022/06/15 12:16:16;;;;;;;5.07;2.80;;;;;;;;;;5093251;28;20032;-79
2022/06/15 12:18:44;;;;;;;5.40;2.90;;;;;;;;;;5095429;28;20040;-80
2022/06/15 12:21:22;;;;;;;3.63;2.70;;;;;;;;;;5095057;28;20044;-80
2022/06/15 12:23:59;;;;;;;4.32;2.50;;;;;;;;;;5095164;28;20473;-80
2022/06/15 12:27:04;;;;;;;4.53;2.50;;;;;;;;;;5095130;28;20024;-78
2022/06/15 12:29:54;;;;;;;5.22;2.50;;;;;;;;;;5094932;28;20028;-77
2022/06/15 12:32:34;;;;;;;5.90;2.40;;;;;;;;;;5094820;28;20455;-80
2022/06/15 12:35:38;;;;;;;4.57;2.55;;;;;;;;;;5094626;28;20036;-79
2022/06/15 12:38:04;;;;;;;4.75;2.20;;;;;;;;;;5094868;28;20505;-80
2022/06/15 12:40:36;;;;;;;4.05;2.58;;;;;;;;;;5094723;28;20064;-71
2022/06/15 12:43:27;;;;;;;3.63;2.30;;;;;;;;;;5094360;28;20397;-76
2022/06/15 12:46:07;;;;;;;5.97;2.53;;;;;;;;;;5094712;28;20043;-76
2022/06/15 12:48:33;;;;;;;3.78;2.10;;;;;;;;;;5094869;28;20039;-74
2022/06/15 12:51:17;;;;;;;6.68;2.70;;;;;;;;;;5094329;28;20470;-77
2022/06/15 12:54:34;;;;;;;4.05;2.40;;;;;;;;;;5094689;28;20085;-73
2022/06/15 12:57:12;;;;;;;6.10;2.40;;;;;;;;;;5077139;28;20040;-76
2022/06/15 12:59:56;;;;;;;3.95;2.70;;;;;;;;;;5082366;28;20110;-74
2022/06/15 13:02:29;;;;;;;6.43;2.38;;;;;;;;;;5080580;28;20032;-73
2022/06/15 13:05:05;;;;;;;2.92;2.20;;;;;;;;;;5083293;28;20118;-73
2022/06/15 13:07:36;;;;;;;5.75;2.15;;;;;;;;;;5089095;28;20047;-79
2022/06/15 13:10:08;;;;;;;3.05;2.22;;;;;;;;;;5073168;28;20491;-78
2022/06/15 13:13:00;;;;;;;4.45;2.45;;;;;;;;;;5072779;28;20043;-76
2022/06/15 13:15:29;;;;;;;4.68;2.47;;;;;;;;;;5071303;28;20127;-74
2022/06/15 13:18:11;;;;;;;5.80;2.17;;;;;;;;;;5085506;28;20017;-79
2022/06/15 13:20:46;;;;;;;2.88;2.25;;;;;;;;;;5084351;28;20458;-73
2022/06/15 13:23:22;;;;;;;4.22;2.20;;;;;;;;;;5093789;28;20036;-72
2022/06/15 13:25:59;;;;;;;3.42;2.28;;;;;;;;;;5093856;28;20051;-75
2022/06/15 13:28:31;;;;;;;3.15;2.20;;;;;;;;;;5084939;28;20503;-72
2022/06/15 13:31:06;;;;;;;5.47;2.03;;;;;;;;;;5083913;28;20501;-75
2022/06/15 13:33:50;;;;;;;4.00;2.28;;;;;;;;;;5074109;28;20039;-73
2022/06/15 13:36:21;;;;;;;7.88;2.30;;;;;;;;;;5073859;28;20079;-73
2022/06/15 13:38:47;;;;;;;3.67;2.38;;;;;;;;;;5072953;28;20085;-74
2022/06/15 13:41:25;;;;;;;5.63;2.30;;;;;;;;;;5073844;28;20028;-72
2022/06/15 13:43:51;;;;;;;4.53;1.98;;;;;;;;;;5073223;28;20100;-72
2022/06/15 13:46:26;;;;;;;2.72;2.03;;;;;;;;;;5072716;28;20519;-76
2022/06/15 13:49:05;;;;;;;6.32;2.15;;;;;;;;;;5092225;28;20360;-73
2022/06/15 13:51:37;;;;;;;4.50;2.25;;;;;;;;;;5093197;28;20063;-77
2022/06/15 13:54:33;;;;;;;4.68;2.40;;;;;;;;;;5093554;28;20024;-74
2022/06/15 13:57:26;;;;;;;4.38;2.47;;;;;;;;;;5093395;28;20038;-74
2022/06/15 14:00:15;;;;;;;9.52;2.08;;;;;;;;;;5093836;28;20463;-75
2022/06/15 14:03:03;;;;;;;3.75;1.85;;;;;;;;;;5089219;28;20135;-78
2022/06/15 14:05:29;;;;;;;5.57;2.20;;;;;;;;;;5092872;28;20032;-76
2022/06/15 14:08:38;;;;;;;3.85;1.80;;;;;;;;;;5093405;28;20466;-75
2022/06/15 14:11:30;;;;;;;4.18;2.53;;;;;;;;;;5093609;28;20036;-77
2022/06/15 14:14:15;;;;;;;3.50;2.10;;;;;;;;;;5086251;28;20451;-77
2022/06/15 14:16:58;;;;;;;3.47;2.15;;;;;;;;;;5108074;28;20063;-71
2022/06/15 14:19:29;;;;;;;3.92;2.30;;;;;;;;;;5097533;27;20037;-78
2022/06/15 14:22:16;;;;;;;2.95;2.00;;;;;;;;;;5080061;28;20053;-73
2022/06/15 14:24:42;;;;;;;5.35;2.00;;;;;;;;;;5074337;28;20094;-73
2022/06/15 14:27:31;;;;;;;3.22;2.00;;;;;;;;;;5091463;28;20117;-72
2022/06/15 14:29:58;;;;;;;3.20;2.10;;;;;;;;;;5086874;28;20040;-74
2022/06/15 14:32:34;;;;;;;4.05;2.10;;;;;;;;;;5112960;28;20051;-74
2022/06/15 14:35:21;;;;;;;3.88;1.80;;;;;;;;;;5112767;28;20089;-75
2022/06/15 14:38:04;;;;;;;4.30;1.95;;;;;;;;;;5113216;28;20529;-72
2022/06/15 14:40:35;;;;;;;3.88;2.13;;;;;;;;;;5072471;28;20039;-73
2022/06/15 14:43:01;;;;;;;3.60;1.95;;;;;;;;;;5072161;28;20032;-72
2022/06/15 14:45:40;;;;;;;6.72;2.40;;;;;;;;;;5072665;28;20379;-74
2022/06/15 14:48:22;;;;;;;4.45;2.00;;;;;;;;;;5078158;28;20045;-77
2022/06/15 14:51:07;;;;;;;4.57;2.00;;;;;;;;;;5091645;28;20371;-76
2022/06/15 14:53:36;;;;;;;3.83;2.00;;;;;;;;;;5091690;28;20084;-70
2022/06/15 14:56:05;;;;;;;4.13;1.98;;;;;;;;;;5090618;28;20020;-73
2022/06/15 14:58:32;;;;;;;6.93;2.20;;;;;;;;;;5091700;28;20040;-72
2022/06/15 15:01:10;;;;;;;3.38;2.13;;;;;;;;;;5091576;28;20099;-73
2022/06/15 15:03:39;;;;;;;3.15;2.05;;;;;;;;;;5099966;28;20028;-71
2022/06/15 15:06:12;;;;;;;3.75;1.95;;;;;;;;;;5110934;28;20024;-74
2022/06/15 15:08:42;;;;;;;4.50;2.05;;;;;;;;;;5110021;28;20031;-74
2022/06/15 15:11:10;;;;;;;2.97;2.22;;;;;;;;;;5110383;28;20109;-74
2022/06/15 15:13:39;;;;;;;3.28;2.20;;;;;;;;;;5111359;28;20077;-75
2022/06/15 15:16:24;;;;;;;4.68;2.00;;;;;;;;;;5110944;28;20120;-74
2022/06/15 15:18:53;;;;;;;3.30;2.10;;;;;;;;;;5110777;28;20032;-72
2022/06/15 15:21:25;;;;;;;5.32;2.20;;;;;;;;;;5111344;28;20044;-72
2022/06/15 15:23:53;;;;;;;5.75;2.03;;;;;;;;;;5111394;28;20116;-73
2022/06/15 15:26:38;;;;;;;10.15;2.50;;;;;;;;;;5111867;28;20169;-70
2022/06/15 15:35:30;;;;;;;3.28;2.45;;;;;;;;;;5081187;28;20078;-73
2022/06/15 15:38:15;;;;;;;4.93;2.10;;;;;;;;;;5084279;28;20048;-73
2022/06/15 15:40:42;;;;;;;4.68;2.20;;;;;;;;;;5074330;28;20050;-74
2022/06/15 15:43:08;;;;;;;4.32;2.15;;;;;;;;;;5070862;28;20545;-73